Time;durP1;ratioP1;P1;durP2;ratioP2;P2;SDS_P1;SDS_P2;PMS_P1;PMS_P2;Temp;Humidity;BMP_temperature;BMP_pressure;BME280_temperature;BME280_humidity;BME280_pressure;Samples;Min_cycle;Max_cycle;Signal;HPM_P1;HPM_P2
2021/11/20 00:02:03;;;;;;;7.97;3.75;;;;;;;16.32;57.46;102018.56;5007043;28;99226;-83
2021/11/20 00:04:30;;;;;;;11.27;3.95;;;;;;;16.16;58.02;102012.94;5017454;28;96655;-82
2021/11/20 00:06:59;;;;;;;10.18;4.78;;;;;;;16.03;58.37;102017.00;5016909;28;96695;-82
2021/11/20 00:09:27;;;;;;;10.35;4.03;;;;;;;15.59;60.22;102015.13;5017559;27;96876;-82
2021/11/20 00:12:00;;;;;;;9.98;3.97;;;;;;;16.07;58.59;102015.13;5005371;27;97883;-81
2021/11/20 00:14:29;;;;;;;11.57;4.25;;;;;;;16.47;57.23;101993.97;5018148;27;96528;-82
2021/11/20 00:17:00;;;;;;;15.90;4.68;;;;;;;16.05;56.72;102001.84;5014200;28;96574;-82
2021/11/20 00:19:28;;;;;;;9.90;4.15;;;;;;;15.73;59.30;102002.19;5014510;27;99764;-82
2021/11/20 00:21:59;;;;;;;12.95;4.28;;;;;;;15.29;60.19;102011.75;5004954;28;98038;-82
2021/11/20 00:24:30;;;;;;;9.40;4.47;;;;;;;15.86;59.37;102014.13;5011359;28;96329;-82
2021/11/20 00:27:00;;;;;;;15.57;4.60;;;;;;;16.09;58.66;102006.13;5008122;28;97182;-82
2021/11/20 00:29:43;;;;;;;14.52;4.95;;;;;;;16.43;56.86;102010.13;5016146;27;98083;-81
2021/11/20 00:32:14;;;;;;;13.70;5.10;;;;;;;15.48;59.81;101999.53;5002051;27;99412;-80
2021/11/20 00:34:43;;;;;;;15.32;4.50;;;;;;;16.28;58.27;102004.47;5015546;28;96556;-80
2021/11/20 00:37:10;;;;;;;8.88;5.10;;;;;;;16.22;57.76;101996.72;5005148;28;96661;-82
2021/11/20 00:39:38;;;;;;;11.85;5.57;;;;;;;16.04;58.80;101992.09;5009570;28;98227;-83
2021/11/20 00:42:06;;;;;;;10.60;4.97;;;;;;;16.26;58.10;101985.00;5001834;28;96801;-81
2021/11/20 00:44:34;;;;;;;9.80;4.57;;;;;;;16.48;57.16;101987.66;4996482;28;96993;-80
2021/11/20 00:47:02;;;;;;;11.60;5.07;;;;;;;16.16;57.51;101982.75;5000211;28;96819;-81
2021/11/20 00:49:29;;;;;;;9.38;4.60;;;;;;;16.32;57.67;101990.09;4999181;28;97832;-81
2021/11/20 00:51:56;;;;;;;12.48;4.60;;;;;;;16.42;57.57;101998.59;5000665;28;100295;-81
2021/11/20 00:54:23;;;;;;;13.80;4.45;;;;;;;16.56;56.45;101990.91;4998091;28;97413;-82
2021/11/20 00:56:50;;;;;;;11.63;4.50;;;;;;;15.96;58.30;101994.19;4993061;28;97279;-80
2021/11/20 00:59:17;;;;;;;9.75;4.43;;;;;;;15.80;59.54;101998.38;4994244;28;102443;-81
2021/11/20 01:01:48;;;;;;;10.07;4.47;;;;;;;16.17;58.18;102005.81;4992311;28;101343;-81
2021/11/20 01:04:15;;;;;;;8.60;4.45;;;;;;;16.00;58.51;102000.28;4990917;28;96929;-81
2021/11/20 01:06:43;;;;;;;10.82;4.70;;;;;;;15.92;59.42;102003.22;4997039;28;97487;-82
2021/11/20 01:09:13;;;;;;;8.20;4.30;;;;;;;16.30;58.15;101999.09;4991146;28;98006;-83
2021/11/20 01:11:42;;;;;;;14.88;4.43;;;;;;;16.01;59.23;102002.03;4998400;28;101641;-82
2021/11/20 01:14:11;;;;;;;12.60;4.43;;;;;;;16.16;57.99;101998.75;4992129;28;96907;-82
2021/11/20 01:16:39;;;;;;;12.55;4.10;;;;;;;16.42;57.20;102013.72;5002012;28;96985;-82
2021/11/20 01:19:07;;;;;;;12.18;4.47;;;;;;;15.48;59.78;101997.72;4995846;28;101078;-81
2021/11/20 01:21:36;;;;;;;10.02;4.25;;;;;;;15.93;58.89;102007.66;4997290;28;98140;-81
2021/11/20 01:24:05;;;;;;;15.32;4.80;;;;;;;15.59;60.12;101997.34;5009063;28;96887;-80
2021/11/20 01:26:32;;;;;;;9.00;4.40;;;;;;;16.16;58.49;101996.09;5020375;28;97103;-81
2021/11/20 01:29:00;;;;;;;10.55;4.43;;;;;;;15.76;59.84;101992.25;5017606;28;100511;-81
2021/11/20 01:31:29;;;;;;;7.55;3.78;;;;;;;15.97;59.26;101997.72;5020351;28;99065;-81
2021/11/20 01:33:56;;;;;;;9.68;4.20;;;;;;;15.84;58.82;101999.97;5006303;28;96625;-81
2021/11/20 01:36:26;;;;;;;14.10;4.25;;;;;;;16.17;57.56;101995.16;4994304;28;97439;-81
2021/11/20 01:38:56;;;;;;;11.13;4.13;;;;;;;16.22;57.95;102001.16;4994479;28;98614;-81
2021/11/20 01:41:24;;;;;;;12.05;3.75;;;;;;;15.75;59.46;101992.34;4995093;28;100715;-81
2021/11/20 01:43:53;;;;;;;11.88;4.20;;;;;;;15.54;60.57;101994.00;4991102;28;96802;-81
2021/11/20 01:46:23;;;;;;;12.68;4.50;;;;;;;15.36;61.46;101994.63;4997042;28;96768;-80
2021/11/20 01:48:59;;;;;;;9.75;4.00;;;;;;;15.65;60.13;101996.25;4993121;28;97928;-80
2021/11/20 01:51:30;;;;;;;8.32;3.65;;;;;;;15.80;60.08;102001.03;4984638;28;100912;-80
2021/11/20 01:54:07;;;;;;;12.10;3.70;;;;;;;15.54;60.44;101989.53;4998819;28;96612;-80
2021/11/20 01:56:41;;;;;;;10.07;3.60;;;;;;;15.73;59.73;101992.41;4998865;28;97067;-80
2021/11/20 01:59:16;;;;;;;8.40;3.83;;;;;;;16.26;58.38;101995.69;4996404;28;98191;-80
2021/11/20 02:01:46;;;;;;;7.07;3.60;;;;;;;16.15;58.94;101995.22;5000747;28;99374;-80
2021/11/20 02:04:21;;;;;;;8.82;3.67;;;;;;;16.06;58.51;102003.59;4995116;28;97192;-81
2021/11/20 02:06:54;;;;;;;10.40;4.20;;;;;;;16.12;58.61;102000.69;4997886;28;96790;-80
2021/11/20 02:09:24;;;;;;;11.27;3.95;;;;;;;15.85;59.88;102001.72;4990731;28;98163;-82
2021/11/20 02:11:58;;;;;;;8.50;3.97;;;;;;;15.32;62.50;101990.31;4999603;28;101235;-81
2021/11/20 02:14:27;;;;;;;9.02;3.42;;;;;;;15.10;61.93;101995.53;4994433;28;99001;-82
2021/11/20 02:17:00;;;;;;;9.90;3.72;;;;;;;15.85;59.68;101997.25;5007830;28;96836;-82
2021/11/20 02:19:30;;;;;;;8.50;3.60;;;;;;;15.70;60.18;102002.28;5014269;28;96943;-82
2021/11/20 02:22:05;;;;;;;9.73;3.97;;;;;;;15.63;60.79;101995.44;5018009;28;100448;-82
2021/11/20 02:24:31;;;;;;;8.18;3.42;;;;;;;15.88;58.24;101982.97;5009639;28;96796;-82
2021/11/20 02:26:58;;;;;;;7.40;3.03;;;;;;;15.72;60.70;101989.78;5014442;28;96775;-82
2021/11/20 02:29:26;;;;;;;7.10;3.00;;;;;;;15.77;60.63;101993.13;5018585;28;98069;-81
2021/11/20 02:31:57;;;;;;;3.83;2.47;;;;;;;15.53;60.85;101992.25;5020452;27;99341;-81
2021/11/20 02:34:25;;;;;;;5.93;3.08;;;;;;;14.86;63.35;101977.72;5021380;27;96589;-82
2021/11/20 02:36:52;;;;;;;8.93;3.20;;;;;;;15.43;61.85;101978.34;5021901;28;96108;-81
2021/11/20 02:39:21;;;;;;;9.35;2.95;;;;;;;15.20;61.95;101970.34;5018848;28;98209;-81
2021/11/20 02:41:50;;;;;;;5.85;2.72;;;;;;;15.36;61.22;101981.31;5018456;28;99892;-82
2021/11/20 02:44:19;;;;;;;6.68;3.03;;;;;;;15.50;60.31;101979.88;5017978;28;96775;-81
2021/11/20 02:46:49;;;;;;;4.68;2.60;;;;;;;15.62;60.93;101983.06;5016185;28;96478;-81
2021/11/20 02:49:18;;;;;;;11.85;2.78;;;;;;;15.45;60.55;101972.97;5003719;28;99413;-82
2021/11/20 02:51:48;;;;;;;6.28;3.00;;;;;;;15.33;61.44;101976.97;5005747;28;99167;-82
2021/11/20 02:54:18;;;;;;;6.35;2.78;;;;;;;15.33;61.06;101976.09;5002391;28;96820;-82
2021/11/20 02:56:49;;;;;;;7.47;2.75;;;;;;;15.22;61.15;101972.94;5004511;28;96820;-83
2021/11/20 02:59:16;;;;;;;9.68;2.70;;;;;;;15.87;60.50;101986.56;4999935;28;99379;-82
2021/11/20 03:01:44;;;;;;;7.40;2.92;;;;;;;15.83;59.95;101984.91;4996604;28;99300;-82
2021/11/20 03:04:13;;;;;;;8.50;2.92;;;;;;;16.21;58.76;101978.97;5006868;28;95988;-82
2021/11/20 03:06:43;;;;;;;5.97;3.03;;;;;;;15.67;60.50;101986.44;5009039;28;99326;-81
2021/11/20 03:09:12;;;;;;;5.07;2.30;;;;;;;15.19;62.88;101979.25;5003100;28;98177;-82
2021/11/20 03:11:39;;;;;;;8.13;2.80;;;;;;;15.01;63.27;101985.22;4997548;28;101400;-82
2021/11/20 03:14:07;;;;;;;4.75;2.65;;;;;;;15.49;61.33;101977.28;4996724;28;96786;-82
2021/11/20 03:16:36;;;;;;;6.47;2.88;;;;;;;15.25;61.69;101971.03;4999255;28;96860;-81
2021/11/20 03:19:04;;;;;;;6.45;3.15;;;;;;;15.51;62.13;101978.94;4993440;28;99367;-82
2021/11/20 03:21:31;;;;;;;7.85;3.20;;;;;;;15.47;61.63;101969.34;5003910;28;101393;-81
2021/11/20 03:24:05;;;;;;;4.82;3.08;;;;;;;15.15;63.30;101973.16;5002280;28;97284;-82
2021/11/20 03:26:32;;;;;;;9.30;3.28;;;;;;;15.01;64.26;101971.91;4997264;28;97098;-82
2021/11/20 03:28:59;;;;;;;10.25;3.05;;;;;;;15.36;63.22;101976.00;4998422;28;97822;-82
2021/11/20 03:31:25;;;;;;;9.20;2.60;;;;;;;15.58;61.68;101984.09;4996959;28;99264;-82
2021/11/20 03:33:52;;;;;;;7.35;3.20;;;;;;;15.52;62.75;101980.72;4995737;28;97276;-82
2021/11/20 03:36:19;;;;;;;6.28;2.85;;;;;;;15.44;62.81;101982.75;4992953;28;97602;-82
2021/11/20 03:38:45;;;;;;;9.52;3.28;;;;;;;15.28;63.75;101978.94;4995324;28;99007;-80
2021/11/20 03:41:15;;;;;;;4.55;2.80;;;;;;;15.17;63.82;101973.09;5003917;28;99490;-80
2021/11/20 03:43:42;;;;;;;10.27;3.63;;;;;;;15.21;63.18;101966.75;5017774;28;96615;-82
2021/11/20 03:46:09;;;;;;;8.05;2.80;;;;;;;15.69;62.14;101964.09;5018124;28;96572;-82
2021/11/20 03:48:36;;;;;;;8.02;3.55;;;;;;;15.23;62.79;101954.22;4997718;28;97844;-82
2021/11/20 03:51:03;;;;;;;5.05;2.97;;;;;;;15.24;64.28;101955.09;4994745;28;103068;-81
2021/11/20 03:53:30;;;;;;;4.00;2.80;;;;;;;15.72;62.24;101953.34;4985431;28;96754;-81
2021/11/20 03:55:57;;;;;;;5.65;3.10;;;;;;;16.05;61.36;101966.31;4992325;28;97270;-81
2021/11/20 03:58:25;;;;;;;5.45;3.22;;;;;;;15.84;61.58;101950.22;4992215;28;97891;-81
2021/11/20 04:00:54;;;;;;;4.70;3.15;;;;;;;16.08;60.22;101953.72;4987440;28;100634;-82
2021/11/20 04:03:21;;;;;;;6.53;3.03;;;;;;;16.25;59.95;101947.72;4990855;28;98318;-82
2021/11/20 04:05:49;;;;;;;5.63;3.05;;;;;;;16.22;59.49;101961.16;4991524;28;96916;-82
2021/11/20 04:08:15;;;;;;;4.50;2.72;;;;;;;16.38;58.71;101948.97;4977904;28;98139;-82
2021/11/20 04:10:43;;;;;;;6.43;2.88;;;;;;;15.48;61.05;101944.44;5003950;28;97938;-80
2021/11/20 04:13:09;;;;;;;3.58;2.90;;;;;;;15.89;60.74;101939.38;4980787;28;97273;-81
2021/11/20 04:15:37;;;;;;;4.00;2.60;;;;;;;16.07;60.29;101937.81;4996756;28;97203;-82
2021/11/20 04:18:04;;;;;;;8.27;3.25;;;;;;;15.96;60.61;101946.19;4995601;28;101305;-82
2021/11/20 04:20:30;;;;;;;5.13;2.72;;;;;;;15.97;60.52;101945.28;5012146;28;97171;-82
2021/11/20 04:22:57;;;;;;;4.38;2.35;;;;;;;16.15;59.63;101939.22;5010477;28;96530;-81
2021/11/20 04:25:25;;;;;;;7.18;2.63;;;;;;;16.19;59.50;101945.31;4996853;28;96846;-79
2021/11/20 04:27:52;;;;;;;6.38;2.67;;;;;;;15.46;60.98;101943.63;5007490;28;99302;-80
2021/11/20 04:30:21;;;;;;;4.97;2.30;;;;;;;15.85;61.17;101941.28;5017539;27;98013;-81
2021/11/20 04:32:50;;;;;;;4.85;2.38;;;;;;;15.71;60.93;101951.59;5014847;28;96677;-81
2021/11/20 04:35:18;;;;;;;3.45;2.60;;;;;;;15.67;60.95;101958.00;4997069;28;96861;-80
2021/11/20 04:37:45;;;;;;;4.68;2.83;;;;;;;15.71;60.95;101953.41;4993385;28;101047;-82
2021/11/20 04:40:13;;;;;;;5.47;2.38;;;;;;;15.94;61.20;101950.75;4998830;28;98953;-81
2021/11/20 04:42:41;;;;;;;5.45;2.85;;;;;;;15.86;61.09;101944.81;4988242;28;96786;-82
2021/11/20 04:45:12;;;;;;;5.78;2.35;;;;;;;15.82;61.32;101953.84;4997998;28;97055;-81
2021/11/20 04:47:39;;;;;;;7.13;2.50;;;;;;;15.45;62.29;101952.53;4997002;28;99286;-82
2021/11/20 04:50:09;;;;;;;6.95;2.33;;;;;;;16.07;60.16;101944.00;4992487;28;102970;-81
2021/11/20 04:52:36;;;;;;;6.30;2.47;;;;;;;16.03;60.10;101947.69;4989895;28;97005;-82
2021/11/20 04:55:04;;;;;;;5.07;2.75;;;;;;;15.67;60.80;101941.13;4982418;28;97001;-81
2021/11/20 04:57:31;;;;;;;6.65;3.15;;;;;;;15.34;61.87;101941.41;4996355;28;99273;-82
2021/11/20 04:59:58;;;;;;;4.22;2.60;;;;;;;15.74;61.23;101948.84;4997328;28;99175;-81
2021/11/20 05:02:25;;;;;;;6.88;2.78;;;;;;;15.69;61.10;101944.59;4992321;28;97004;-80
2021/11/20 05:04:52;;;;;;;7.35;3.00;;;;;;;15.84;61.08;101941.34;5002814;28;96768;-82
2021/11/20 05:07:19;;;;;;;6.78;3.03;;;;;;;15.73;60.96;101955.09;4998961;28;96918;-81
2021/11/20 05:09:46;;;;;;;4.65;2.53;;;;;;;16.11;60.14;101955.41;5002030;28;101325;-81
2021/11/20 05:12:12;;;;;;;5.68;2.72;;;;;;;15.26;62.47;101953.25;4992303;28;96730;-81
2021/11/20 05:14:41;;;;;;;5.47;2.60;;;;;;;15.56;62.33;101954.84;5001536;28;96757;-81
2021/11/20 05:17:08;;;;;;;4.07;2.72;;;;;;;15.80;60.64;101948.59;4998674;28;98133;-82
2021/11/20 05:19:36;;;;;;;5.50;2.30;;;;;;;16.02;60.64;101955.75;4999565;28;98754;-81
2021/11/20 05:22:03;;;;;;;4.55;2.63;;;;;;;16.42;58.74;101949.69;4998424;28;97116;-81
2021/11/20 05:24:32;;;;;;;7.13;2.88;;;;;;;15.83;60.40;101952.94;5006229;28;96905;-81
2021/11/20 05:27:01;;;;;;;6.78;2.65;;;;;;;16.13;59.30;101962.41;4991104;28;99228;-80
2021/11/20 05:29:35;;;;;;;5.47;3.00;;;;;;;15.94;60.16;101961.41;5004971;28;99769;-82
2021/11/20 05:32:02;;;;;;;5.00;2.50;;;;;;;16.19;59.66;101955.97;5004437;28;96805;-82
2021/11/20 05:34:29;;;;;;;3.53;2.55;;;;;;;16.09;58.41;101950.13;5011384;28;96739;-82
2021/11/20 05:36:56;;;;;;;8.60;3.25;;;;;;;15.81;60.80;101952.13;5011567;28;100401;-82
2021/11/20 05:39:22;;;;;;;5.32;2.53;;;;;;;16.07;59.88;101952.00;5010843;28;97677;-81
2021/11/20 05:41:52;;;;;;;6.43;2.70;;;;;;;15.97;59.69;101947.06;5011230;28;96891;-82
2021/11/20 05:44:19;;;;;;;7.22;2.63;;;;;;;16.09;59.33;101947.44;5014577;28;96791;-82
2021/11/20 05:46:46;;;;;;;6.85;2.65;;;;;;;15.85;60.06;101948.41;5008375;28;99857;-82
2021/11/20 05:49:13;;;;;;;5.97;2.58;;;;;;;15.89;60.39;101944.69;4995347;28;99093;-82
2021/11/20 05:51:40;;;;;;;3.00;2.25;;;;;;;16.02;59.91;101951.28;4992925;28;96779;-82
2021/11/20 05:54:07;;;;;;;7.55;2.45;;;;;;;16.00;59.11;101937.16;4998267;28;96763;-82
2021/11/20 05:56:35;;;;;;;2.45;1.90;;;;;;;15.85;60.09;101948.41;4997553;28;98990;-81
2021/11/20 05:59:04;;;;;;;5.43;2.35;;;;;;;15.72;60.61;101947.16;5008350;28;99101;-82
2021/11/20 06:01:30;;;;;;;5.53;2.33;;;;;;;16.07;59.64;101949.34;5003366;28;96687;-82
2021/11/20 06:03:57;;;;;;;6.30;2.20;;;;;;;16.12;59.25;101942.00;5006177;28;96738;-82
2021/11/20 06:06:24;;;;;;;5.57;3.10;;;;;;;15.60;60.89;101950.28;5004865;28;99404;-81
2021/11/20 06:08:50;;;;;;;5.55;2.05;;;;;;;16.04;59.49;101944.09;4999334;28;98819;-81
2021/11/20 06:11:19;;;;;;;6.45;2.42;;;;;;;16.01;59.39;101946.91;5005690;28;96947;-83
2021/11/20 06:13:48;;;;;;;4.40;2.28;;;;;;;16.14;59.16;101947.28;5001655;28;97001;-82
2021/11/20 06:16:16;;;;;;;5.47;1.70;;;;;;;16.35;58.11;101939.28;5000907;28;99326;-82
2021/11/20 06:18:43;;;;;;;5.10;2.05;;;;;;;16.14;58.98;101945.50;5009372;28;101143;-80
2021/11/20 06:21:09;;;;;;;4.65;2.42;;;;;;;15.73;59.03;101949.75;5017592;28;96802;-80
2021/11/20 06:23:38;;;;;;;3.80;2.03;;;;;;;15.95;59.32;101944.44;5019104;27;96884;-81
2021/11/20 06:26:08;;;;;;;7.32;2.10;;;;;;;15.83;59.71;101950.25;5020186;27;100035;-81
2021/11/20 06:28:35;;;;;;;2.40;1.92;;;;;;;15.98;59.03;101947.00;5006174;28;97634;-82
2021/11/20 06:31:04;;;;;;;5.13;1.95;;;;;;;16.27;58.11;101957.41;4998408;28;97482;-82
2021/11/20 06:33:33;;;;;;;4.40;1.77;;;;;;;16.09;58.61;101963.44;5000016;28;97232;-81
2021/11/20 06:36:00;;;;;;;4.82;2.00;;;;;;;15.96;59.44;101956.84;5008608;28;96924;-83
2021/11/20 06:38:28;;;;;;;3.60;1.90;;;;;;;16.31;58.68;101961.69;5001828;28;100501;-83
2021/11/20 06:40:59;;;;;;;4.80;2.13;;;;;;;16.27;58.51;101954.75;5006650;28;96611;-82
2021/11/20 06:43:28;;;;;;;5.05;2.10;;;;;;;16.13;59.48;101957.09;5006320;28;97536;-82
2021/11/20 06:45:57;;;;;;;3.80;2.20;;;;;;;16.37;58.42;101957.03;5004187;28;96855;-80
2021/11/20 06:48:25;;;;;;;5.50;1.98;;;;;;;16.12;59.66;101960.69;5002791;28;99566;-81
2021/11/20 06:50:53;;;;;;;4.72;2.00;;;;;;;15.92;60.57;101960.59;4997288;28;97155;-81
2021/11/20 06:53:21;;;;;;;6.05;2.83;;;;;;;15.64;61.84;101962.53;4998305;28;96890;-82
2021/11/20 06:55:50;;;;;;;6.20;2.80;;;;;;;15.85;60.90;101964.41;4998732;28;99053;-82
2021/11/20 07:01:00;;;;;;;5.22;2.83;;;;;;;16.07;60.56;101970.66;4978669;28;98396;-81
2021/11/20 07:03:32;;;;;;;8.02;3.10;;;;;;;16.04;60.06;101969.91;4994272;28;97026;-81
2021/11/20 07:06:03;;;;;;;4.90;3.17;;;;;;;15.81;61.41;101973.47;4995778;28;99416;-81
2021/11/20 07:08:30;;;;;;;6.10;3.60;;;;;;;16.01;61.14;101970.91;4985519;28;101344;-81
2021/11/20 07:11:02;;;;;;;5.22;3.60;;;;;;;15.94;61.20;101975.59;4995090;28;96801;-80
2021/11/20 07:13:29;;;;;;;4.43;3.33;;;;;;;15.52;61.91;101977.16;4993420;28;96816;-81
2021/11/20 07:15:57;;;;;;;9.20;4.28;;;;;;;15.45;62.72;101976.50;4994249;28;98121;-81
2021/11/20 07:18:25;;;;;;;4.82;3.58;;;;;;;15.95;61.86;101977.31;4997251;28;97832;-80
2021/11/20 07:20:53;;;;;;;4.97;3.30;;;;;;;15.72;61.80;101979.13;4999205;28;96775;-81
2021/11/20 07:23:21;;;;;;;5.50;3.40;;;;;;;16.03;61.34;101978.81;4997488;28;97235;-81
2021/11/20 07:25:48;;;;;;;10.70;3.50;;;;;;;16.10;60.48;101981.19;4991559;28;99076;-82
2021/11/20 07:28:18;;;;;;;5.63;3.33;;;;;;;16.01;60.67;101981.56;4995797;28;99905;-83
2021/11/20 07:30:44;;;;;;;4.97;3.17;;;;;;;15.76;61.86;101986.94;4990622;28;98616;-81
2021/11/20 07:33:13;;;;;;;4.40;3.42;;;;;;;15.72;62.50;101977.34;4997359;28;97231;-82
2021/11/20 07:35:42;;;;;;;9.93;3.92;;;;;;;16.06;61.51;101973.38;4994187;28;101291;-81
2021/11/20 07:38:11;;;;;;;7.95;3.33;;;;;;;15.97;60.94;101968.41;4995666;28;99280;-82
2021/11/20 07:40:41;;;;;;;7.35;4.07;;;;;;;15.84;60.44;101968.88;4996243;28;97407;-81
2021/11/20 07:43:09;;;;;;;7.93;4.20;;;;;;;15.53;61.57;101965.63;4988235;28;97098;-80
2021/11/20 07:45:36;;;;;;;5.43;3.58;;;;;;;15.82;61.37;101964.50;4993451;28;99809;-80
2021/11/20 07:48:04;;;;;;;8.90;4.70;;;;;;;15.51;63.37;101965.63;4992181;28;98149;-80
2021/11/20 07:50:31;;;;;;;9.68;4.10;;;;;;;15.94;62.06;101950.75;4995909;28;97129;-80
2021/11/20 07:52:57;;;;;;;10.25;4.53;;;;;;;15.61;62.65;101949.34;4996401;28;96991;-81
2021/11/20 07:55:24;;;;;;;7.90;4.03;;;;;;;15.87;61.85;101951.91;4988090;28;103572;-81
2021/11/20 07:57:52;;;;;;;5.78;4.32;;;;;;;15.42;63.87;101943.81;4996131;28;100105;-81
2021/11/20 08:00:21;;;;;;;12.02;4.32;;;;;;;15.53;63.17;101947.84;4999830;28;96859;-79
2021/11/20 08:02:48;;;;;;;11.82;5.00;;;;;;;15.31;63.38;101937.97;4994416;28;97111;-80
2021/11/20 08:05:15;;;;;;;10.27;4.88;;;;;;;15.41;63.21;101937.63;4996045;28;100177;-81
2021/11/20 08:07:42;;;;;;;7.53;5.05;;;;;;;15.55;62.17;101934.47;5001648;28;99241;-82
2021/11/20 08:10:12;;;;;;;13.10;5.28;;;;;;;15.54;63.03;101930.94;5002141;28;97026;-81
2021/11/20 08:12:38;;;;;;;10.85;5.22;;;;;;;15.99;61.58;101930.09;5007228;28;96910;-83
2021/11/20 08:15:08;;;;;;;13.35;5.57;;;;;;;16.22;60.58;101927.38;5013199;28;97768;-80
2021/11/20 08:17:36;;;;;;;12.10;5.78;;;;;;;16.28;60.93;101918.25;5009985;28;99351;-81
2021/11/20 08:20:05;;;;;;;13.93;6.07;;;;;;;16.26;59.80;101912.13;5005052;28;96801;-81
2021/11/20 08:22:36;;;;;;;14.48;5.57;;;;;;;16.11;60.81;101924.28;5002359;28;96878;-82
2021/11/20 08:25:04;;;;;;;9.75;5.45;;;;;;;16.29;59.67;101922.66;5002241;28;99184;-82
2021/11/20 08:27:31;;;;;;;12.13;5.15;;;;;;;16.17;60.03;101916.03;4995465;28;97757;-82
2021/11/20 08:29:57;;;;;;;8.57;5.25;;;;;;;16.31;59.42;101900.34;4994068;28;96946;-82
2021/11/20 08:32:27;;;;;;;14.75;5.72;;;;;;;16.23;59.55;101904.25;4997056;28;98213;-82
2021/11/20 08:34:56;;;;;;;10.02;5.47;;;;;;;16.46;58.88;101903.31;5007180;28;98291;-82
2021/11/20 08:37:23;;;;;;;9.63;5.30;;;;;;;16.18;59.28;101896.44;5004311;28;97990;-82
2021/11/20 08:39:52;;;;;;;14.15;6.00;;;;;;;16.15;59.83;101895.69;5008982;28;96687;-81
2021/11/20 08:42:20;;;;;;;12.75;6.18;;;;;;;15.86;59.80;101892.41;5007374;28;96869;-82
2021/11/20 08:44:48;;;;;;;12.85;5.65;;;;;;;16.08;59.78;101894.22;5012845;28;96933;-82
2021/11/20 08:47:16;;;;;;;14.45;5.13;;;;;;;16.45;58.03;101888.22;5012209;28;99487;-82
2021/11/20 08:49:44;;;;;;;16.38;5.68;;;;;;;16.62;57.93;101883.94;5002344;28;96907;-81
2021/11/20 08:52:13;;;;;;;15.55;5.05;;;;;;;16.41;58.36;101884.81;5003757;28;96881;-82
2021/11/20 08:54:40;;;;;;;16.33;5.35;;;;;;;16.54;57.87;101877.19;5009451;28;98299;-82
2021/11/20 08:57:10;;;;;;;14.85;5.53;;;;;;;16.62;56.77;101883.94;5009408;28;99037;-83
2021/11/20 08:59:39;;;;;;;11.68;4.78;;;;;;;16.53;57.63;101891.44;5010008;28;96696;-83
2021/11/20 09:02:11;;;;;;;14.98;4.90;;;;;;;16.27;57.77;101877.41;5001637;28;96821;-82
2021/11/20 09:04:45;;;;;;;11.85;5.35;;;;;;;15.62;60.27;101881.81;4995217;28;99590;-86
2021/11/20 09:07:20;;;;;;;14.15;5.07;;;;;;;16.40;58.07;101871.56;4990731;28;99428;-85
2021/11/20 09:09:49;;;;;;;11.30;5.47;;;;;;;16.71;57.11;101877.34;5003274;28;96694;-83
2021/11/20 09:12:20;;;;;;;13.63;4.80;;;;;;;16.95;56.30;101870.06;5003042;28;96830;-83
2021/11/20 09:14:53;;;;;;;8.23;4.97;;;;;;;16.64;56.88;101871.41;5000008;28;100354;-83
2021/11/20 09:17:22;;;;;;;10.77;5.15;;;;;;;16.74;56.08;101863.84;4999370;28;98507;-81
2021/11/20 09:19:50;;;;;;;15.23;5.40;;;;;;;16.21;57.79;101864.28;5015791;28;97070;-82
2021/11/20 09:22:19;;;;;;;18.70;5.68;;;;;;;16.48;57.76;101859.59;5013925;28;97663;-83
2021/11/20 09:24:49;;;;;;;10.32;4.38;;;;;;;16.31;56.88;101859.47;4995546;28;99949;-82
2021/11/20 09:27:20;;;;;;;11.32;5.07;;;;;;;16.42;57.43;101872.34;5000247;28;100655;-84
2021/11/20 09:29:47;;;;;;;14.55;4.63;;;;;;;16.75;56.42;101868.28;5004928;28;97117;-83
2021/11/20 09:32:14;;;;;;;11.23;4.97;;;;;;;15.76;59.39;101868.81;5001440;28;96859;-82
2021/11/20 09:34:42;;;;;;;15.52;5.30;;;;;;;16.14;58.00;101857.50;5006393;28;99638;-83
2021/11/20 09:37:09;;;;;;;11.07;4.53;;;;;;;16.00;57.37;101859.88;5004339;28;100341;-82
2021/11/20 09:39:40;;;;;;;13.07;4.47;;;;;;;16.51;57.24;101858.63;5007598;28;96584;-83
2021/11/20 09:42:35;;;;;;;12.07;4.80;;;;;;;16.16;57.04;101862.75;5008662;28;96798;-80
2021/11/20 09:45:08;;;;;;;9.95;4.15;;;;;;;16.28;56.45;101856.91;5006004;28;99217;-83
2021/11/20 09:47:37;;;;;;;14.90;4.97;;;;;;;16.39;56.76;101862.69;5009255;28;97377;-81
2021/11/20 09:50:11;;;;;;;13.07;4.15;;;;;;;16.31;56.90;101860.34;5002917;28;96659;-82
2021/11/20 09:52:56;;;;;;;12.52;4.18;;;;;;;16.15;57.45;101861.00;5007357;28;96639;-83
2021/11/20 09:55:53;;;;;;;9.32;3.55;;;;;;;16.35;56.77;101853.91;5005172;28;98178;-81
2021/11/20 09:58:29;;;;;;;12.77;5.25;;;;;;;16.37;56.76;101859.19;4997019;28;101059;-82
2021/11/20 10:01:11;;;;;;;;;;;;;;;16.56;55.26;101845.94;5000550;28;96732;-80
2021/11/20 10:03:44;;;;;;;9.60;4.07;;;;;;;16.61;55.93;101847.50;5008464;28;97048;-80
2021/11/20 10:06:13;;;;;;;9.48;3.70;;;;;;;16.61;55.64;101839.50;4994874;28;99217;-81
2021/11/20 10:08:43;;;;;;;12.32;4.25;;;;;;;16.68;55.72;101846.31;4995648;28;98898;-81
2021/11/20 10:11:32;;;;;;;13.40;4.22;;;;;;;17.06;54.31;101841.09;4995584;28;97084;-81
2021/11/20 10:14:12;;;;;;;9.02;3.60;;;;;;;17.32;53.45;101838.13;4998527;28;97035;-82
2021/11/20 10:16:45;;;;;;;12.07;4.10;;;;;;;16.85;53.90;101837.59;4994748;28;97829;-80
2021/11/20 10:19:16;;;;;;;10.98;4.10;;;;;;;16.67;54.35;101839.25;4992352;28;98997;-82
2021/11/20 10:21:55;;;;;;;10.70;3.75;;;;;;;16.82;55.07;101835.03;5000977;28;96920;-81
2021/11/20 10:24:35;;;;;;;9.48;3.53;;;;;;;17.04;54.06;101822.47;4990813;28;97206;-81
2021/11/20 10:27:16;;;;;;;11.10;4.15;;;;;;;17.06;53.60;101830.44;4991155;28;99223;-82
2021/11/20 10:30:22;;;;;;;14.07;4.07;;;;;;;16.99;54.20;101829.84;4996567;28;98078;-81
2021/11/20 10:32:53;;;;;;;9.20;3.85;;;;;;;16.91;54.15;101815.09;4978782;28;98571;-81
2021/11/20 10:35:24;;;;;;;8.48;3.83;;;;;;;17.00;54.03;101818.19;4995179;28;96759;-79
2021/11/20 10:37:54;;;;;;;11.32;4.05;;;;;;;16.83;54.45;101807.41;4990908;28;101371;-80
2021/11/20 10:40:26;;;;;;;11.43;3.92;;;;;;;16.63;54.51;101807.44;4990735;28;99119;-79
2021/11/20 10:42:58;;;;;;;10.98;4.68;;;;;;;16.95;54.62;101800.66;4994536;28;96729;-81
2021/11/20 10:45:43;;;;;;;11.30;4.05;;;;;;;17.08;53.78;101799.16;4990845;28;96786;-84
2021/11/20 10:48:21;;;;;;;12.23;4.75;;;;;;;17.10;53.85;101799.97;4992754;28;99207;-84
2021/11/20 10:50:50;;;;;;;8.65;4.80;;;;;;;17.30;53.31;101791.03;4982830;28;98003;-84
2021/11/20 10:53:46;;;;;;;11.60;5.10;;;;;;;17.30;52.74;101785.69;4987591;28;97466;-83
2021/11/20 10:56:32;;;;;;;12.15;4.70;;;;;;;17.33;52.74;101781.03;4995307;28;98253;-83
2021/11/20 10:59:20;;;;;;;13.48;5.00;;;;;;;16.83;53.83;101780.72;4992067;28;101140;-83
2021/11/20 11:02:22;;;;;;;13.85;5.22;;;;;;;17.11;53.71;101772.31;4986251;28;100551;-84
2021/11/20 11:05:27;;;;;;;11.70;5.55;;;;;;;17.35;52.86;101768.50;4985278;28;97364;-81
2021/11/20 11:08:02;;;;;;;10.73;5.20;;;;;;;17.46;52.88;101771.50;4991403;28;97167;-82
2021/11/20 11:10:34;;;;;;;10.85;5.45;;;;;;;17.22;53.09;101766.47;4997404;28;98206;-81
2021/11/20 11:13:09;;;;;;;12.50;5.43;;;;;;;17.05;52.96;101762.81;4995355;28;98044;-82
2021/11/20 11:15:50;;;;;;;18.38;5.47;;;;;;;17.29;53.57;101752.75;4990593;28;96889;-83
2021/11/20 11:18:33;;;;;;;7.80;5.38;;;;;;;17.32;52.86;101751.75;4992025;28;98928;-83
2021/11/20 11:21:41;;;;;;;10.10;5.07;;;;;;;17.35;52.72;101749.78;4989121;28;99258;-82
2021/11/20 11:24:23;;;;;;;9.38;5.82;;;;;;;16.97;53.26;101734.72;4995009;28;98892;-83
2021/11/20 11:26:54;;;;;;;12.35;5.20;;;;;;;17.09;53.48;101729.66;4982828;28;97328;-83
2021/11/20 11:29:31;;;;;;;17.20;6.20;;;;;;;17.04;53.67;101730.81;4991770;28;98015;-84
2021/11/20 11:31:58;;;;;;;15.77;6.10;;;;;;;17.14;53.39;101734.78;4987057;28;98258;-85
2021/11/20 11:34:28;;;;;;;15.35;6.55;;;;;;;17.10;52.90;101726.06;4988091;28;101895;-84
2021/11/20 11:37:05;;;;;;;11.80;5.93;;;;;;;17.06;53.21;101723.63;4996014;28;97409;-89
2021/11/20 11:39:40;;;;;;;14.25;6.43;;;;;;;17.09;53.43;101718.97;4989619;28;97348;-84